createdAt,value
2023-09-11T00:01:03.783Z,20.47
2023-09-11T00:03:50.956Z,20.46
2023-09-11T00:06:39.689Z,20.44
2023-09-11T00:09:15.406Z,20.42
2023-09-11T00:12:03.678Z,20.39
2023-09-11T00:14:38.993Z,20.35
2023-09-11T00:17:27.817Z,20.31
2023-09-11T00:20:24.717Z,20.26
2023-09-11T00:23:20.789Z,20.21
2023-09-11T00:26:16.719Z,20.16
2023-09-11T00:29:12.695Z,20.14
2023-09-11T00:32:08.699Z,20.16
2023-09-11T00:35:04.703Z,20.16
2023-09-11T00:38:00.710Z,20.15
2023-09-11T00:40:56.702Z,20.13
2023-09-11T00:43:52.684Z,20.11
2023-09-11T00:46:48.775Z,20.08
2023-09-11T00:49:38.703Z,20.04
2023-09-11T00:52:13.991Z,20.01
2023-09-11T00:55:02.698Z,19.97
2023-09-11T00:57:37.763Z,19.93
2023-09-11T01:00:26.774Z,19.92
2023-09-11T01:03:01.843Z,19.92
2023-09-11T01:05:50.680Z,19.95
2023-09-11T01:08:26.829Z,19.95
2023-09-11T01:11:15.678Z,19.95
2023-09-11T01:13:50.788Z,19.94
2023-09-11T01:16:52.686Z,19.90
2023-09-11T01:20:01.707Z,19.86
2023-09-11T01:22:54.502Z,19.82
2023-09-11T01:26:18.712Z,19.78
2023-09-11T01:29:21.762Z,19.74
2023-09-11T01:32:17.706Z,19.69
2023-09-11T01:35:13.721Z,19.68
2023-09-11T01:38:09.672Z,19.69
2023-09-11T01:40:55.413Z,19.70
2023-09-11T01:43:50.681Z,19.70
2023-09-11T01:46:26.332Z,19.70
2023-09-11T01:49:15.688Z,19.69
2023-09-11T01:51:59.667Z,19.69
2023-09-11T01:54:42.756Z,19.68
2023-09-11T01:57:24.706Z,19.65
2023-09-11T02:00:06.816Z,19.62
2023-09-11T02:02:48.816Z,19.59
2023-09-11T02:05:30.841Z,19.59
2023-09-11T02:08:12.680Z,19.59
2023-09-11T02:10:55.240Z,19.60
2023-09-11T02:13:31.029Z,19.60
2023-09-11T02:16:12.750Z,19.59
2023-09-11T02:18:47.782Z,19.58
2023-09-11T02:21:29.712Z,19.56
2023-09-11T02:24:11.781Z,19.55
2023-09-11T02:26:53.714Z,19.53
2023-09-11T02:29:35.824Z,19.51
2023-09-11T02:32:17.701Z,19.48
2023-09-11T02:34:59.818Z,19.44
2023-09-11T02:37:43.618Z,19.40
2023-09-11T02:40:39.673Z,19.38
2023-09-11T02:43:35.689Z,19.38
2023-09-11T02:46:31.674Z,19.40
2023-09-11T02:49:20.675Z,19.41
2023-09-11T02:51:56.657Z,19.38
2023-09-11T02:54:45.695Z,19.37
2023-09-11T02:57:20.758Z,19.32
2023-09-11T03:00:13.700Z,19.29
2023-09-11T03:02:49.512Z,19.25
2023-09-11T03:05:41.839Z,19.19
2023-09-11T03:08:17.779Z,19.15
2023-09-11T03:11:10.836Z,19.12
2023-09-11T03:13:52.689Z,19.10
2023-09-11T03:16:27.758Z,19.10
2023-09-11T03:19:09.693Z,19.13
2023-09-11T03:21:51.728Z,19.15
2023-09-11T03:24:33.692Z,19.15
2023-09-11T03:27:29.663Z,19.12
2023-09-11T03:30:25.673Z,19.08
2023-09-11T03:33:08.097Z,19.01
2023-09-11T03:35:56.712Z,18.96
2023-09-11T03:38:31.952Z,18.89
2023-09-11T03:41:20.757Z,18.82
2023-09-11T03:43:55.935Z,18.75
2023-09-11T03:46:44.713Z,18.71
2023-09-11T03:49:22.286Z,18.69
2023-09-11T03:52:10.658Z,18.70
2023-09-11T03:54:45.881Z,18.70
2023-09-11T03:57:35.744Z,18.69
2023-09-11T04:00:12.304Z,18.67
2023-09-11T04:02:53.921Z,18.65
2023-09-11T04:05:35.677Z,18.61
2023-09-11T04:08:17.762Z,18.55
2023-09-11T04:10:59.682Z,18.48
2023-09-11T04:13:41.669Z,18.43
2023-09-11T04:16:23.767Z,18.37
2023-09-11T04:19:08.025Z,18.35
2023-09-11T04:21:50.785Z,18.36
2023-09-11T04:24:32.678Z,18.38
2023-09-11T04:27:28.653Z,18.40
2023-09-11T04:30:24.678Z,18.41
2023-09-11T04:33:20.736Z,18.41
2023-09-11T04:36:16.682Z,18.41
2023-09-11T04:39:12.684Z,18.40
2023-09-11T04:42:01.768Z,18.41
2023-09-11T04:44:36.799Z,18.42
2023-09-11T04:47:25.723Z,18.44
2023-09-11T04:50:00.777Z,18.47
2023-09-11T04:52:50.658Z,18.52
2023-09-11T04:55:25.739Z,18.58
2023-09-11T04:58:14.666Z,18.63
2023-09-11T05:00:50.512Z,18.67
2023-09-11T05:03:39.857Z,18.71
2023-09-11T05:06:17.089Z,18.76
2023-09-11T05:11:51.711Z,18.82
2023-09-11T05:14:47.714Z,18.84
2023-09-11T05:17:43.747Z,18.85
2023-09-11T05:20:39.704Z,18.86
2023-09-11T05:23:35.701Z,18.90
2023-09-11T05:26:31.646Z,18.97
2023-09-11T05:29:27.738Z,19.03
2023-09-11T05:32:23.753Z,19.07
2023-09-11T05:35:20.687Z,19.07
2023-09-11T05:38:16.679Z,19.05
2023-09-11T05:41:05.761Z,19.03
2023-09-11T05:43:48.712Z,19.00
2023-09-11T05:46:30.752Z,19.01
2023-09-11T05:49:12.668Z,19.01
2023-09-11T05:51:54.729Z,19.04
2023-09-11T05:54:37.685Z,19.09
2023-09-11T05:57:20.083Z,19.12
2023-09-11T06:00:01.724Z,19.16
2023-09-11T06:02:47.390Z,19.18
2023-09-11T06:05:30.708Z,19.21
2023-09-11T06:08:06.097Z,19.24
2023-09-11T06:10:54.684Z,19.26
2023-09-11T06:13:30.018Z,19.31
2023-09-11T06:16:18.728Z,19.37
2023-09-11T06:18:54.088Z,19.48
2023-09-11T06:21:42.955Z,19.58
2023-09-11T06:24:18.899Z,19.67
2023-09-11T06:27:27.664Z,19.75
2023-09-11T06:30:06.887Z,19.83
2023-09-11T06:32:55.835Z,19.90
2023-09-11T06:35:30.980Z,19.97
2023-09-11T06:38:19.683Z,20.04
2023-09-11T06:40:54.927Z,20.12
2023-09-11T06:43:44.652Z,20.20
2023-09-11T06:46:20.248Z,20.26
2023-09-11T06:49:08.657Z,20.32
2023-09-11T06:51:43.902Z,20.39
2023-09-11T06:54:32.669Z,20.48
2023-09-11T06:57:08.015Z,20.60
2023-09-11T06:59:56.821Z,20.70
2023-09-11T07:02:31.972Z,20.82
2023-09-11T07:05:20.669Z,20.96
2023-09-11T07:07:55.988Z,21.00
2023-09-11T07:10:44.643Z,21.04
2023-09-11T07:13:26.680Z,21.09
2023-09-11T07:16:09.107Z,21.15
2023-09-11T07:18:51.951Z,21.21
2023-09-11T07:21:33.770Z,21.27
2023-09-11T07:24:15.672Z,21.34
2023-09-11T07:27:11.673Z,21.40
2023-09-11T07:30:07.698Z,21.46
2023-09-11T07:33:03.808Z,21.54
2023-09-11T07:35:52.790Z,21.60
2023-09-11T07:38:41.971Z,21.66
2023-09-11T07:41:32.683Z,21.73
2023-09-11T07:44:28.677Z,21.80
2023-09-11T07:47:24.760Z,21.88
2023-09-11T07:50:20.656Z,21.95
2023-09-11T07:53:16.707Z,22.01
2023-09-11T07:56:13.716Z,22.09
2023-09-11T07:59:09.754Z,22.16
2023-09-11T08:02:05.754Z,22.23
2023-09-11T08:05:01.780Z,22.30
2023-09-11T08:08:01.876Z,22.38
2023-09-11T08:10:44.680Z,22.44
2023-09-11T08:13:26.756Z,22.52
2023-09-11T08:16:08.663Z,22.60
2023-09-11T08:18:50.794Z,22.68
2023-09-11T08:21:32.653Z,22.75
2023-09-11T08:24:14.905Z,22.83
2023-09-11T08:26:56.674Z,22.91
2023-09-11T08:29:38.765Z,22.99
2023-09-11T08:32:20.665Z,23.05
2023-09-11T08:35:03.891Z,23.14
2023-09-11T08:37:59.673Z,23.22
2023-09-11T08:40:56.665Z,23.31
2023-09-11T08:43:47.672Z,23.39
2023-09-11T08:46:22.840Z,23.49
2023-09-11T08:49:15.696Z,23.58
2023-09-11T08:51:59.739Z,23.66
2023-09-11T08:54:55.654Z,23.75
2023-09-11T08:57:33.644Z,23.86
2023-09-11T09:00:22.660Z,23.94
2023-09-11T09:02:58.825Z,24.02
2023-09-11T09:05:42.027Z,24.11
2023-09-11T09:08:30.671Z,24.21
2023-09-11T09:11:05.913Z,24.30
2023-09-11T09:13:47.651Z,24.40
2023-09-11T09:16:22.747Z,24.49
2023-09-11T09:18:57.977Z,24.57
2023-09-11T09:21:39.643Z,24.66
2023-09-11T09:24:19.248Z,24.75
2023-09-11T09:27:05.700Z,24.86
2023-09-11T09:29:49.711Z,24.95
2023-09-11T09:32:31.725Z,25.03
2023-09-11T09:35:14.762Z,25.13
2023-09-11T09:38:01.706Z,25.22
2023-09-11T09:40:45.699Z,25.32
2023-09-11T09:43:27.686Z,25.40
2023-09-11T09:46:32.721Z,25.52
2023-09-11T09:49:10.986Z,25.64
2023-09-11T09:52:00.663Z,25.75
2023-09-11T09:54:50.728Z,25.86
2023-09-11T09:57:40.656Z,25.97
2023-09-11T10:00:17.809Z,26.07
2023-09-11T10:03:02.755Z,26.17
2023-09-11T10:05:47.695Z,26.25
2023-09-11T10:08:29.724Z,26.33
2023-09-11T10:11:11.678Z,26.44
2023-09-11T10:13:54.742Z,26.51
2023-09-11T10:16:42.687Z,26.61
2023-09-11T10:19:24.785Z,26.66
2023-09-11T10:22:06.659Z,26.66
2023-09-11T10:24:48.744Z,26.69
2023-09-11T10:27:38.682Z,26.74
2023-09-11T10:30:16.786Z,26.78
2023-09-11T10:33:08.754Z,26.82
2023-09-11T10:35:47.803Z,26.89
2023-09-11T10:38:38.680Z,26.96
2023-09-11T10:41:14.826Z,27.05
2023-09-11T10:44:03.652Z,27.12
2023-09-11T10:46:51.748Z,27.21
2023-09-11T10:49:49.678Z,27.31
2023-09-11T10:52:45.648Z,27.42
2023-09-11T10:55:28.345Z,27.52
2023-09-11T10:58:20.649Z,27.60
2023-09-11T11:00:57.390Z,27.67
2023-09-11T11:03:48.094Z,27.77
2023-09-11T11:06:25.194Z,27.83
2023-09-11T11:09:26.483Z,27.89
2023-09-11T11:12:10.485Z,27.91
2023-09-11T11:15:35.768Z,27.94
2023-09-11T11:18:13.366Z,28.02
2023-09-11T11:21:14.689Z,28.08
2023-09-11T11:23:59.453Z,28.10
2023-09-11T11:26:50.692Z,28.14
2023-09-11T11:29:46.676Z,28.13
2023-09-11T11:32:44.756Z,28.12
2023-09-11T11:35:26.948Z,28.14
2023-09-11T11:38:15.645Z,28.20
2023-09-11T11:40:57.657Z,28.28
2023-09-11T11:43:39.721Z,28.39
2023-09-11T11:46:23.677Z,28.46
2023-09-11T11:49:05.715Z,28.57
2023-09-11T11:51:51.719Z,28.68
2023-09-11T11:54:35.014Z,28.78
2023-09-11T11:57:17.692Z,28.86
2023-09-11T11:59:59.743Z,28.92
2023-09-11T12:02:41.721Z,28.98
2023-09-11T12:05:25.320Z,29.00
2023-09-11T12:08:13.681Z,29.07
2023-09-11T12:10:53.819Z,29.15
2023-09-11T12:13:49.856Z,29.18
2023-09-11T12:16:25.763Z,29.19
2023-09-11T12:19:14.667Z,29.22
2023-09-11T12:21:49.778Z,29.24
2023-09-11T12:24:38.668Z,29.21
2023-09-11T12:27:13.737Z,29.13
2023-09-11T12:30:05.745Z,29.08
2023-09-11T12:32:41.885Z,29.03
2023-09-11T12:35:42.743Z,29.13
2023-09-11T12:38:24.780Z,29.27
2023-09-11T12:41:06.661Z,29.39
2023-09-11T12:43:55.762Z,29.54
2023-09-11T12:46:30.973Z,29.68
2023-09-11T12:49:19.643Z,29.80
2023-09-11T12:51:56.312Z,29.92
2023-09-11T12:54:44.682Z,29.89
2023-09-11T12:57:19.998Z,29.72
2023-09-11T13:00:08.693Z,29.57
2023-09-11T13:02:44.196Z,29.44
2023-09-11T13:05:32.666Z,29.23
2023-09-11T13:08:09.424Z,29.09
2023-09-11T13:10:58.679Z,29.14
2023-09-11T13:13:40.667Z,29.26
2023-09-11T13:16:22.798Z,29.40
2023-09-11T13:19:04.676Z,29.56
2023-09-11T13:21:46.788Z,29.73
2023-09-11T13:24:28.751Z,29.89
2023-09-11T13:27:24.672Z,30.07
2023-09-11T13:30:21.719Z,30.25
2023-09-11T13:33:17.722Z,30.37
2023-09-11T13:35:59.994Z,30.42
2023-09-11T13:38:48.697Z,30.47
2023-09-11T13:41:23.910Z,30.55
2023-09-11T13:44:12.676Z,30.65
2023-09-11T13:46:47.999Z,30.74
2023-09-11T13:49:36.673Z,30.77
2023-09-11T13:52:11.926Z,30.73
2023-09-11T13:55:00.801Z,30.69
2023-09-11T13:57:36.279Z,30.66
2023-09-11T14:00:24.756Z,30.67
2023-09-11T14:03:00.132Z,30.71
2023-09-11T14:05:48.796Z,30.74
2023-09-11T14:08:24.941Z,30.69
2023-09-11T14:11:16.726Z,30.62
2023-09-11T14:13:52.019Z,30.57
2023-09-11T14:16:40.765Z,30.54
2023-09-11T14:19:15.983Z,30.45
2023-09-11T14:22:07.850Z,30.37
2023-09-11T14:24:42.946Z,30.28
2023-09-11T14:27:32.720Z,30.17
2023-09-11T14:30:28.661Z,30.10
2023-09-11T14:33:11.010Z,29.91
2023-09-11T14:35:59.755Z,29.78
2023-09-11T14:38:34.933Z,29.69
2023-09-11T14:41:23.676Z,29.60
2023-09-11T14:44:19.671Z,29.52
2023-09-11T14:47:15.710Z,29.42
2023-09-11T14:50:13.711Z,29.32
2023-09-11T14:53:09.663Z,29.23
2023-09-11T14:56:08.655Z,29.15
2023-09-11T14:59:11.661Z,29.09
2023-09-11T15:02:07.758Z,29.06
2023-09-11T15:05:03.798Z,29.02
2023-09-11T15:07:59.695Z,28.99
2023-09-11T15:10:50.683Z,28.99
2023-09-11T15:13:28.502Z,29.00
2023-09-11T15:16:17.691Z,28.96
2023-09-11T15:18:57.024Z,28.93
2023-09-11T15:21:45.699Z,28.89
2023-09-11T15:24:21.910Z,28.84
2023-09-11T15:27:19.796Z,28.78
2023-09-11T15:30:15.734Z,28.72
2023-09-11T15:33:11.738Z,28.65
2023-09-11T15:36:19.759Z,28.58
2023-09-11T15:39:02.035Z,28.51
2023-09-11T15:41:50.703Z,28.45
2023-09-11T15:44:27.459Z,28.40
2023-09-11T15:47:17.675Z,28.33
2023-09-11T15:49:52.929Z,28.25
2023-09-11T15:52:41.665Z,28.18
2023-09-11T15:55:16.973Z,28.10
2023-09-11T15:58:05.680Z,28.02
2023-09-11T16:00:40.999Z,27.94
2023-09-11T16:03:29.776Z,27.87
2023-09-11T16:06:05.137Z,27.80
2023-09-11T16:08:48.680Z,27.73
2023-09-11T16:11:30.687Z,27.67
2023-09-11T16:14:26.688Z,27.60
2023-09-11T16:17:22.672Z,27.53
2023-09-11T16:20:21.693Z,27.44
2023-09-11T16:23:18.659Z,27.37
2023-09-11T16:26:14.693Z,27.29
2023-09-11T16:29:10.670Z,27.21
2023-09-11T16:32:06.691Z,27.11
2023-09-11T16:35:02.685Z,27.01
2023-09-11T16:37:58.692Z,26.92
2023-09-11T16:40:48.702Z,26.83
2023-09-11T16:43:23.740Z,26.73
2023-09-11T16:46:12.766Z,26.64
2023-09-11T16:48:48.326Z,26.56
2023-09-11T16:51:36.666Z,26.48
2023-09-11T16:54:17.204Z,26.39
2023-09-11T16:57:05.706Z,26.30
2023-09-11T16:59:40.758Z,26.22
2023-09-11T17:02:31.695Z,26.14
2023-09-11T17:05:10.828Z,26.04
2023-09-11T17:08:01.524Z,25.94
2023-09-11T17:10:36.814Z,25.85
2023-09-11T17:13:27.676Z,25.78
2023-09-11T17:16:03.759Z,25.70
2023-09-11T17:18:46.483Z,25.64
2023-09-11T17:21:28.736Z,25.58
2023-09-11T17:24:03.842Z,25.51
2023-09-11T17:26:39.072Z,25.45
2023-09-11T17:29:27.817Z,25.37
2023-09-11T17:32:04.262Z,25.30
2023-09-11T17:34:53.828Z,25.24
2023-09-11T17:37:29.955Z,25.17
2023-09-11T17:40:21.141Z,25.09
2023-09-11T17:42:56.964Z,25.03
2023-09-11T17:45:46.739Z,24.96
2023-09-11T17:48:22.071Z,24.88
2023-09-11T17:51:04.389Z,24.82
2023-09-11T17:53:45.820Z,24.74
2023-09-11T17:56:27.917Z,24.67
2023-09-11T17:59:09.708Z,24.59
2023-09-11T18:01:51.930Z,24.53
2023-09-11T18:04:33.844Z,24.46
2023-09-11T18:07:15.852Z,24.39
2023-09-11T18:09:51.890Z,24.34
2023-09-11T18:12:40.681Z,24.29
2023-09-11T18:15:16.864Z,24.25
2023-09-11T18:18:05.763Z,24.20
2023-09-11T18:20:42.864Z,24.15
2023-09-11T18:23:31.760Z,24.10
2023-09-11T18:26:06.804Z,24.04
2023-09-11T18:28:55.687Z,23.99
2023-09-11T18:31:30.756Z,23.93
2023-09-11T18:34:19.784Z,23.88
2023-09-11T18:37:01.771Z,23.83
2023-09-11T18:39:43.802Z,23.77
2023-09-11T18:42:25.901Z,23.71
2023-09-11T18:45:08.733Z,23.66
2023-09-11T18:47:50.857Z,23.61
2023-09-11T18:50:32.744Z,23.57
2023-09-11T18:53:14.793Z,23.53
2023-09-11T18:55:56.723Z,23.50
2023-09-11T18:58:40.048Z,23.46
2023-09-11T19:01:22.846Z,23.43
2023-09-11T19:04:11.811Z,23.41
2023-09-11T19:07:07.736Z,23.37
2023-09-11T19:10:03.672Z,23.33
2023-09-11T19:12:48.348Z,23.29
2023-09-11T19:15:37.683Z,23.24
2023-09-11T19:18:19.867Z,23.19
2023-09-11T19:21:01.753Z,23.14
2023-09-11T19:23:43.778Z,23.09
2023-09-11T19:26:27.692Z,23.03
2023-09-11T19:29:16.690Z,22.99
2023-09-11T19:32:14.683Z,22.92
2023-09-11T19:35:03.700Z,22.87
2023-09-11T19:37:39.782Z,22.80
2023-09-11T19:40:28.693Z,22.74
2023-09-11T19:43:03.775Z,22.66
2023-09-11T19:45:52.744Z,22.60
2023-09-11T19:48:28.911Z,22.53
2023-09-11T19:51:18.755Z,22.48
2023-09-11T19:53:53.868Z,22.43
2023-09-11T19:56:42.679Z,22.38
2023-09-11T19:59:18.751Z,22.32
2023-09-11T20:02:08.700Z,22.27
2023-09-11T20:04:50.656Z,22.22
2023-09-11T20:07:46.695Z,22.18
2023-09-11T20:10:42.691Z,22.12
2023-09-11T20:13:38.686Z,22.10
2023-09-11T20:16:34.690Z,22.07
2023-09-11T20:19:30.699Z,22.03
2023-09-11T20:22:26.688Z,22.00
2023-09-11T20:25:22.676Z,21.98
2023-09-11T20:28:18.680Z,21.96
2023-09-11T20:31:22.690Z,21.94
2023-09-11T20:34:18.681Z,21.93
2023-09-11T20:37:07.668Z,21.91
2023-09-11T20:39:42.833Z,21.90
2023-09-11T20:42:31.753Z,21.89
2023-09-11T20:45:07.046Z,21.88
2023-09-11T20:47:55.788Z,21.87
2023-09-11T20:50:31.819Z,21.85
2023-09-11T20:53:20.673Z,21.83
2023-09-11T20:55:56.822Z,21.80
2023-09-11T20:58:46.693Z,21.78
2023-09-11T21:01:22.220Z,21.77
2023-09-11T21:04:11.923Z,21.74
2023-09-11T21:06:47.851Z,21.72
2023-09-11T21:09:29.966Z,21.68
2023-09-11T21:12:12.771Z,21.65
2023-09-11T21:14:47.759Z,21.63
2023-09-11T21:17:22.986Z,21.62
2023-09-11T21:20:04.711Z,21.62
2023-09-11T21:22:39.762Z,21.61
2023-09-11T21:25:15.017Z,21.63
2023-09-11T21:28:03.674Z,21.66
2023-09-11T21:30:59.743Z,21.69
2023-09-11T21:33:43.280Z,21.72
2023-09-11T21:36:31.687Z,21.74
2023-09-11T21:39:06.975Z,21.77
2023-09-11T21:41:56.762Z,21.77
2023-09-11T21:44:32.103Z,21.77
2023-09-11T21:47:20.677Z,21.79
2023-09-11T21:49:55.930Z,21.79
2023-09-11T21:52:44.688Z,21.76
2023-09-11T21:55:19.943Z,21.71
2023-09-11T21:58:08.693Z,21.64
2023-09-11T22:00:43.987Z,21.58
2023-09-11T22:03:32.781Z,21.50
2023-09-11T22:06:14.703Z,21.42
2023-09-11T22:08:56.730Z,21.35
2023-09-11T22:11:38.673Z,21.28
2023-09-11T22:14:20.729Z,21.22
2023-09-11T22:17:02.706Z,21.16
2023-09-11T22:19:44.732Z,21.12
2023-09-11T22:22:26.672Z,21.12
2023-09-11T22:25:09.061Z,21.10
2023-09-11T22:27:51.739Z,21.08
2023-09-11T22:30:47.676Z,21.06
2023-09-11T22:33:30.016Z,21.02
2023-09-11T22:36:18.710Z,20.98
2023-09-11T22:38:53.986Z,20.95
2023-09-11T22:41:42.673Z,20.92
2023-09-11T22:44:18.987Z,20.88
2023-09-11T22:47:08.658Z,20.84
2023-09-11T22:49:43.826Z,20.80
2023-09-11T22:52:32.667Z,20.74
2023-09-11T22:55:08.070Z,20.69
2023-09-11T22:57:58.666Z,20.65
2023-09-11T23:00:41.848Z,20.61
2023-09-11T23:03:43.912Z,20.57
2023-09-11T23:06:26.742Z,20.54
2023-09-11T23:09:08.808Z,20.53
2023-09-11T23:11:50.669Z,20.55
2023-09-11T23:14:32.742Z,20.57
2023-09-11T23:17:15.678Z,20.58
2023-09-11T23:19:57.915Z,20.60
2023-09-11T23:22:39.673Z,20.59
2023-09-11T23:25:21.749Z,20.58
2023-09-11T23:28:17.675Z,20.54
2023-09-11T23:31:13.874Z,20.48
2023-09-11T23:33:55.936Z,20.45
2023-09-11T23:36:46.676Z,20.41
2023-09-11T23:39:21.972Z,20.40
2023-09-11T23:42:10.688Z,20.37
2023-09-11T23:44:46.171Z,20.35
2023-09-11T23:47:34.698Z,20.34
2023-09-11T23:50:10.256Z,20.32
2023-09-11T23:52:59.659Z,20.31
2023-09-11T23:55:34.936Z,20.28
2023-09-11T23:58:16.747Z,20.26
